RU-0024 weather

Krasnaya Polyana Heliport
Krasnaya Polyana, Krasnodar Krai, Russia

Public forecast

Using degrees Celsius for public forecast. Weather courtesy of forecast.io.

METAR (pilot weather report)

Closest report is Sochi International Airport, 17.4 nm (32.3 km) SW. Retrieved 2019/08/21 03:30 UTC (13 minutes ago):

URSS 210330Z 05003MPS 9999 FEW015 24/21 Q1014 R02/010070 R06/010070 NOSIG RMK R06/07003MPS MT OBSC QFE759

TAF (pilot weather forecast)

Closest forecast is Sochi International Airport, 17.4 nm (32.3 km) SW. Retrieved 2019/08/21 03:24 UTC (19 minutes ago):

TAF URSS 210159Z 2103/2203 05005MPS 9999 SCT030CB BKN100 TEMPO 2103/2106 VRB05G10MPS -TSRA FM210600 25003G08MPS 9999 SCT030 BECMG 2109/2110 28007MPS BECMG 2117/2118 05005MPS SCT030CB TEMPO 2118/2124 VRB06G14MPS -TSRA